Etusivu
METAR-TAF:

METAR-TAF

Lentoasemat :

Elsenborn

Bütgenbach, Belgia

Leveyspiiri: 50-28N, Pituuspiiri: 006-11E, korkeus merenpinnasta: 564 m

Tämänhetkinen sää

Tämä raportti tehtiin 19 minuuttia sitten, kello 21.25 UTC
Tuuli 1 kn eri suunnista
Lämpötila 14°C
Kosteus 94%
Ilmanpaine 1013 hPa
Näkyvyys 10 km tai enemmän

METAR: EBLB 092125Z AUTO VRB01KT 9999 FEW071/// 14/13 Q1013 BLU

Aika: 23:44 (21:44 UTC)


TAF: puuttuu

Säähavainnot ja -ennusteet yli 4000 lentoasemalta (METAR- ja TAF-raportit).

Käytössä olevat sääasemat on merkitty karttaan keltaisilla ja punaisilla pisteillä.

Aseta hiiri pisteen päälle nähdäksesi sääaseman nimen.

Klikkaa sitten nähdäksesi säähavainnot ja -ennusteet.

Kartan vaihtaminen: klikkaa mustalla rastilla varustettuja vihreitä pisteitä, niin voit zoomata sisään; viivalla varustettua vihreää pistettä, niin voit zoomata ulos tai vihreitä nuolia, niin pääset viereisille kartoille.


METAR-TAF: